createdAt,value
2023-02-09T00:04:12.769Z,7.25
2023-02-09T00:09:14.368Z,7.20
2023-02-09T00:14:19.618Z,6.45
2023-02-09T00:19:22.640Z,6.55
2023-02-09T00:24:24.536Z,6.28
2023-02-09T00:29:26.005Z,6.85
2023-02-09T00:34:27.527Z,7.10
2023-02-09T00:39:29.500Z,7.28
2023-02-09T00:44:30.868Z,7.55
2023-02-09T00:49:32.658Z,7.35
2023-02-09T00:54:34.073Z,7.70
2023-02-09T00:59:35.767Z,6.82
2023-02-09T01:04:37.897Z,7.25
2023-02-09T01:09:39.324Z,7.70
2023-02-09T01:14:40.761Z,7.93
2023-02-09T01:19:42.243Z,7.10
2023-02-09T01:24:43.648Z,7.68
2023-02-09T01:29:45.282Z,7.93
2023-02-09T01:34:50.156Z,7.63
2023-02-09T01:39:51.574Z,7.90
2023-02-09T01:44:58.994Z,8.13
2023-02-09T01:50:00.659Z,8.20
2023-02-09T01:55:03.132Z,8.85
2023-02-09T02:00:14.968Z,7.90
2023-02-09T02:05:16.908Z,7.80
2023-02-09T02:10:18.600Z,9.32
2023-02-09T02:15:22.023Z,8.35
2023-02-09T02:20:35.313Z,8.25
2023-02-09T02:25:39.751Z,8.60
2023-02-09T02:30:41.233Z,8.40
2023-02-09T02:35:45.514Z,8.52
2023-02-09T02:40:47.181Z,8.40
2023-02-09T02:45:57.983Z,8.18
2023-02-09T02:51:02.283Z,8.48
2023-02-09T02:56:14.273Z,8.85
2023-02-09T03:11:51.684Z,9.02
2023-02-09T03:17:06.621Z,8.63
2023-02-09T03:22:13.608Z,8.85
2023-02-09T03:27:15.006Z,8.30
2023-02-09T03:32:16.571Z,8.20
2023-02-09T03:37:18.098Z,8.27
2023-02-09T03:42:19.628Z,8.68
2023-02-09T03:47:21.062Z,9.30
2023-02-09T03:52:22.438Z,8.73
2023-02-09T03:57:23.874Z,7.82
2023-02-09T04:02:25.454Z,9.32
2023-02-09T04:07:27.769Z,9.15
2023-02-09T04:12:29.286Z,8.93
2023-02-09T04:17:30.775Z,8.82
2023-02-09T04:22:32.229Z,8.45
2023-02-09T04:27:33.716Z,8.73
2023-02-09T04:32:35.093Z,8.55
2023-02-09T04:37:36.472Z,9.15
2023-02-09T04:42:37.975Z,9.32
2023-02-09T04:47:39.443Z,8.77
2023-02-09T04:52:40.930Z,9.10
2023-02-09T04:58:01.135Z,8.82
2023-02-09T05:08:03.922Z,9.07
2023-02-09T05:13:05.310Z,8.70
2023-02-09T05:18:06.685Z,8.40
2023-02-09T05:23:08.155Z,8.95
2023-02-09T05:28:09.631Z,8.75
2023-02-09T05:33:11.060Z,8.88
2023-02-09T05:38:12.446Z,9.05
2023-02-09T05:43:14.804Z,9.57
2023-02-09T05:48:16.940Z,9.82
2023-02-09T05:53:18.325Z,8.95
2023-02-09T05:58:19.674Z,8.85
2023-02-09T06:03:21.115Z,10.23
2023-02-09T06:08:22.536Z,9.65
2023-02-09T06:13:23.949Z,8.75
2023-02-09T06:23:40.675Z,8.85
2023-02-09T06:28:42.545Z,8.63
2023-02-09T06:33:43.936Z,8.93
2023-02-09T06:38:45.326Z,8.45
2023-02-09T06:43:46.747Z,8.80
2023-02-09T06:48:48.404Z,8.57
2023-02-09T06:53:50.085Z,8.50
2023-02-09T06:58:51.674Z,8.68
2023-02-09T07:03:53.102Z,9.65
2023-02-09T07:08:54.567Z,8.90
2023-02-09T07:13:55.948Z,9.85
2023-02-09T07:19:00.308Z,9.20
2023-02-09T07:24:01.896Z,9.07
2023-02-09T07:29:03.314Z,8.55
2023-02-09T07:34:04.744Z,8.70
2023-02-09T07:39:06.126Z,9.43
2023-02-09T07:44:09.304Z,8.60
2023-02-09T07:49:11.084Z,8.95
2023-02-09T07:54:16.108Z,8.75
2023-02-09T07:59:17.540Z,8.40
2023-02-09T08:04:19.012Z,8.88
2023-02-09T08:09:20.493Z,8.90
2023-02-09T08:14:29.240Z,8.55
2023-02-09T08:19:30.655Z,8.52
2023-02-09T08:24:32.109Z,8.50
2023-02-09T08:29:36.709Z,9.65
2023-02-09T08:34:38.145Z,8.70
2023-02-09T08:39:39.628Z,8.80
2023-02-09T08:44:40.995Z,8.50
2023-02-09T08:49:42.453Z,8.23
2023-02-09T08:54:44.135Z,8.90
2023-02-09T08:59:45.571Z,9.05
2023-02-09T09:04:47.258Z,8.70
2023-02-09T09:09:48.794Z,9.63
2023-02-09T09:14:50.234Z,8.48
2023-02-09T09:19:56.322Z,8.60
2023-02-09T09:24:57.743Z,9.45
2023-02-09T09:29:59.321Z,8.73
2023-02-09T09:35:00.889Z,10.55
2023-02-09T09:40:02.367Z,9.38
2023-02-09T09:45:05.108Z,9.40
2023-02-09T09:50:08.400Z,9.63
2023-02-09T09:55:13.629Z,9.73
2023-02-09T10:00:20.047Z,10.07
2023-02-09T10:05:23.176Z,9.63
2023-02-09T10:10:33.449Z,9.93
2023-02-09T10:15:37.722Z,10.50
2023-02-09T10:20:50.129Z,10.23
2023-02-09T10:25:51.633Z,9.50
2023-02-09T10:30:54.151Z,9.95
2023-02-09T10:36:01.008Z,10.07
2023-02-09T10:41:08.500Z,10.15
2023-02-09T10:46:16.137Z,9.38
2023-02-09T10:51:29.353Z,9.68
2023-02-09T10:56:35.465Z,10.30
2023-02-09T11:01:42.025Z,10.23
2023-02-09T11:06:48.296Z,10.60
2023-02-09T11:11:49.827Z,10.57
2023-02-09T11:17:14.539Z,12.05
2023-02-09T11:22:15.930Z,11.30
2023-02-09T11:27:36.169Z,11.18
2023-02-09T11:37:53.675Z,10.75
2023-02-09T11:43:04.392Z,11.57
2023-02-09T11:48:05.807Z,11.50
2023-02-09T11:53:17.346Z,11.70
2023-02-09T11:58:30.934Z,11.68
2023-02-09T12:03:32.362Z,12.02
2023-02-09T12:08:38.037Z,13.05
2023-02-09T12:13:57.946Z,13.15
2023-02-09T12:18:59.360Z,12.55
2023-02-09T12:24:01.480Z,13.10
2023-02-09T12:29:20.987Z,12.32
2023-02-09T12:34:24.054Z,11.73
2023-02-09T12:39:26.715Z,13.55
2023-02-09T12:44:28.060Z,12.15
2023-02-09T12:49:29.496Z,13.35
2023-02-09T12:54:43.015Z,12.63
2023-02-09T12:59:50.559Z,12.38
2023-02-09T13:04:52.268Z,13.70
2023-02-09T13:09:54.373Z,12.07
2023-02-09T13:14:55.760Z,13.35
2023-02-09T13:20:02.504Z,13.25
2023-02-09T13:25:18.970Z,13.75
2023-02-09T13:30:26.533Z,12.95
2023-02-09T13:35:30.972Z,13.13
2023-02-09T13:40:33.926Z,13.05
2023-02-09T13:45:35.570Z,13.95
2023-02-09T13:50:36.979Z,13.88
2023-02-09T13:55:40.044Z,13.02
2023-02-09T14:00:43.715Z,14.18
2023-02-09T14:05:51.286Z,14.98
2023-02-09T14:10:54.984Z,13.77
2023-02-09T14:16:09.857Z,13.15
2023-02-09T14:21:11.322Z,13.57
2023-02-09T14:26:15.473Z,13.88
2023-02-09T14:31:22.207Z,13.75
2023-02-09T14:36:32.441Z,14.30
2023-02-09T14:41:35.574Z,13.32
2023-02-09T14:46:50.586Z,13.90
2023-02-09T14:52:03.058Z,14.27
2023-02-09T14:57:04.750Z,14.50
2023-02-09T15:02:16.631Z,13.50
2023-02-09T15:07:20.165Z,14.73
2023-02-09T15:12:23.953Z,14.40
2023-02-09T15:17:28.035Z,15.40
2023-02-09T15:22:29.475Z,13.27
2023-02-09T15:27:42.178Z,14.60
2023-02-09T15:32:44.044Z,14.40
2023-02-09T15:37:46.303Z,14.27
2023-02-09T15:43:06.410Z,14.05
2023-02-09T15:48:09.501Z,15.20
2023-02-09T15:53:12.625Z,15.80
2023-02-09T15:58:15.289Z,14.75
2023-02-09T16:03:18.082Z,15.05
2023-02-09T16:08:21.597Z,14.52
2023-02-09T16:13:23.450Z,15.90
2023-02-09T16:18:25.271Z,14.57
2023-02-09T16:23:26.942Z,13.90
2023-02-09T16:28:28.468Z,14.77
2023-02-09T16:33:29.899Z,16.30
2023-02-09T16:38:31.285Z,14.90
2023-02-09T16:43:32.711Z,17.27
2023-02-09T16:48:35.002Z,15.27
2023-02-09T16:53:37.308Z,16.58
2023-02-09T16:58:39.610Z,15.38
2023-02-09T17:03:41.837Z,13.85
2023-02-09T17:08:43.392Z,14.45
2023-02-09T17:13:44.963Z,15.38
2023-02-09T17:18:47.374Z,15.90
2023-02-09T17:23:49.124Z,26.25
2023-02-09T17:28:51.000Z,22.17
2023-02-09T17:33:55.828Z,18.13
2023-02-09T17:38:58.212Z,15.73
2023-02-09T17:44:28.657Z,15.40
2023-02-09T17:49:36.597Z,15.90
2023-02-09T17:54:38.008Z,14.80
2023-02-09T17:59:39.445Z,14.15
2023-02-09T18:04:41.035Z,13.65
2023-02-09T18:09:42.434Z,12.15
2023-02-09T18:14:43.844Z,12.88
2023-02-09T18:19:45.448Z,10.13
2023-02-09T18:24:46.939Z,9.95
2023-02-09T18:29:48.378Z,8.52
2023-02-09T18:34:49.779Z,7.63
2023-02-09T18:39:51.168Z,6.93
2023-02-09T18:44:52.714Z,6.82
2023-02-09T18:49:57.106Z,6.80
2023-02-09T18:54:58.500Z,7.00
2023-02-09T19:00:01.825Z,5.97
2023-02-09T19:05:04.425Z,6.53
2023-02-09T19:10:07.203Z,6.03
2023-02-09T19:15:09.162Z,5.63
2023-02-09T19:20:17.961Z,5.55
2023-02-09T19:25:20.239Z,6.45
2023-02-09T19:30:25.052Z,5.72
2023-02-09T19:35:26.575Z,6.18
2023-02-09T19:40:33.727Z,6.57
2023-02-09T19:45:37.925Z,6.70
2023-02-09T19:50:39.416Z,5.97
2023-02-09T19:55:41.122Z,5.00
2023-02-09T20:05:43.199Z,5.00
2023-02-09T20:10:45.294Z,4.50
2023-02-09T20:15:47.277Z,5.03
2023-02-09T20:20:49.139Z,4.75
2023-02-09T20:25:51.005Z,5.93
2023-02-09T20:30:52.485Z,4.95
2023-02-09T20:35:55.694Z,4.50
2023-02-09T20:40:57.165Z,5.72
2023-02-09T20:46:22.844Z,5.70
2023-02-09T20:51:25.563Z,4.80
2023-02-09T20:56:28.412Z,5.18
2023-02-09T21:01:29.865Z,5.20
2023-02-09T21:06:31.378Z,5.30
2023-02-09T21:11:33.073Z,4.60
2023-02-09T21:16:34.843Z,4.18
2023-02-09T21:21:36.323Z,4.05
2023-02-09T21:26:41.295Z,4.72
2023-02-09T21:31:43.061Z,4.40
2023-02-09T21:36:44.675Z,4.97
2023-02-09T21:42:04.824Z,5.30
2023-02-09T21:52:07.641Z,4.18
2023-02-09T21:57:09.092Z,4.55
2023-02-09T22:02:14.844Z,3.88
2023-02-09T22:07:16.350Z,3.95
2023-02-09T22:12:17.791Z,3.85
2023-02-09T22:17:19.304Z,3.75
2023-02-09T22:22:20.757Z,3.47
2023-02-09T22:27:22.495Z,3.53
2023-02-09T22:32:24.475Z,4.10
2023-02-09T22:37:26.041Z,4.53
2023-02-09T22:42:27.504Z,3.10
2023-02-09T22:47:28.963Z,3.60
2023-02-09T22:52:30.376Z,3.55
2023-02-09T22:57:31.979Z,3.78
2023-02-09T23:02:33.550Z,3.63
2023-02-09T23:07:35.034Z,3.80
2023-02-09T23:12:36.502Z,3.45
2023-02-09T23:17:37.988Z,3.17
2023-02-09T23:22:39.532Z,3.13
2023-02-09T23:27:41.067Z,3.88
2023-02-09T23:32:42.502Z,3.28
2023-02-09T23:37:43.952Z,3.65
2023-02-09T23:42:45.389Z,3.85
2023-02-09T23:47:46.920Z,3.38
2023-02-09T23:52:48.361Z,3.05
2023-02-09T23:57:50.047Z,3.20
